sensor_id;sensor_type;location;lat;lon;timestamp;P1;durP1;ratioP1;P2;durP2;ratioP2
21822;SDS011;11074;48.596;9.238;2023-04-15T00:00:37;8.05;;;2.97;;
21822;SDS011;11074;48.596;9.238;2023-04-15T00:03:03;6.78;;;2.42;;
21822;SDS011;11074;48.596;9.238;2023-04-15T00:05:32;7.57;;;2.97;;
21822;SDS011;11074;48.596;9.238;2023-04-15T00:07:59;7.88;;;3.03;;
21822;SDS011;11074;48.596;9.238;2023-04-15T00:10:25;7.90;;;2.83;;
21822;SDS011;11074;48.596;9.238;2023-04-15T00:12:52;6.43;;;2.63;;
21822;SDS011;11074;48.596;9.238;2023-04-15T00:15:18;5.25;;;2.78;;
21822;SDS011;11074;48.596;9.238;2023-04-15T00:17:44;6.28;;;2.80;;
21822;SDS011;11074;48.596;9.238;2023-04-15T00:20:10;5.90;;;2.90;;
21822;SDS011;11074;48.596;9.238;2023-04-15T00:22:36;6.20;;;2.75;;
21822;SDS011;11074;48.596;9.238;2023-04-15T00:25:01;6.15;;;2.80;;
21822;SDS011;11074;48.596;9.238;2023-04-15T00:27:27;5.63;;;2.92;;
21822;SDS011;11074;48.596;9.238;2023-04-15T00:29:54;7.70;;;2.88;;
21822;SDS011;11074;48.596;9.238;2023-04-15T00:32:20;4.90;;;2.92;;
21822;SDS011;11074;48.596;9.238;2023-04-15T00:34:46;5.82;;;2.70;;
21822;SDS011;11074;48.596;9.238;2023-04-15T00:37:11;4.53;;;2.58;;
21822;SDS011;11074;48.596;9.238;2023-04-15T00:39:37;6.18;;;3.00;;
21822;SDS011;11074;48.596;9.238;2023-04-15T00:42:04;6.43;;;2.30;;
21822;SDS011;11074;48.596;9.238;2023-04-15T00:44:30;5.05;;;2.38;;
21822;SDS011;11074;48.596;9.238;2023-04-15T00:46:56;7.20;;;2.88;;
21822;SDS011;11074;48.596;9.238;2023-04-15T00:49:22;6.18;;;2.63;;
21822;SDS011;11074;48.596;9.238;2023-04-15T00:51:48;5.90;;;2.60;;
21822;SDS011;11074;48.596;9.238;2023-04-15T00:54:14;4.70;;;2.65;;
21822;SDS011;11074;48.596;9.238;2023-04-15T00:56:40;6.45;;;2.70;;
21822;SDS011;11074;48.596;9.238;2023-04-15T00:59:06;5.03;;;2.58;;
21822;SDS011;11074;48.596;9.238;2023-04-15T01:01:36;5.43;;;2.95;;
21822;SDS011;11074;48.596;9.238;2023-04-15T01:04:02;6.13;;;2.70;;
21822;SDS011;11074;48.596;9.238;2023-04-15T01:06:29;6.00;;;2.88;;
21822;SDS011;11074;48.596;9.238;2023-04-15T01:08:56;6.13;;;2.67;;
21822;SDS011;11074;48.596;9.238;2023-04-15T01:11:23;7.15;;;3.38;;
21822;SDS011;11074;48.596;9.238;2023-04-15T01:13:50;6.10;;;2.75;;
21822;SDS011;11074;48.596;9.238;2023-04-15T01:16:19;5.93;;;2.92;;
21822;SDS011;11074;48.596;9.238;2023-04-15T01:18:45;6.05;;;2.47;;
21822;SDS011;11074;48.596;9.238;2023-04-15T01:21:10;8.27;;;2.72;;
21822;SDS011;11074;48.596;9.238;2023-04-15T01:23:37;5.90;;;2.22;;
21822;SDS011;11074;48.596;9.238;2023-04-15T01:26:04;5.13;;;2.97;;
21822;SDS011;11074;48.596;9.238;2023-04-15T01:28:34;6.03;;;2.70;;
21822;SDS011;11074;48.596;9.238;2023-04-15T01:31:08;6.45;;;2.60;;
21822;SDS011;11074;48.596;9.238;2023-04-15T01:33:39;6.03;;;2.75;;
21822;SDS011;11074;48.596;9.238;2023-04-15T01:36:07;6.95;;;2.70;;
21822;SDS011;11074;48.596;9.238;2023-04-15T01:38:35;6.45;;;2.65;;
21822;SDS011;11074;48.596;9.238;2023-04-15T01:41:02;5.18;;;3.00;;
21822;SDS011;11074;48.596;9.238;2023-04-15T01:43:28;6.90;;;3.00;;
21822;SDS011;11074;48.596;9.238;2023-04-15T01:45:54;5.82;;;2.88;;
21822;SDS011;11074;48.596;9.238;2023-04-15T01:48:20;5.80;;;3.00;;
21822;SDS011;11074;48.596;9.238;2023-04-15T01:50:47;4.63;;;2.65;;
21822;SDS011;11074;48.596;9.238;2023-04-15T01:53:13;4.55;;;2.22;;
21822;SDS011;11074;48.596;9.238;2023-04-15T01:55:39;6.10;;;2.58;;
21822;SDS011;11074;48.596;9.238;2023-04-15T01:58:05;4.97;;;2.60;;
21822;SDS011;11074;48.596;9.238;2023-04-15T02:00:31;5.22;;;2.65;;
21822;SDS011;11074;48.596;9.238;2023-04-15T02:02:57;5.82;;;2.63;;
21822;SDS011;11074;48.596;9.238;2023-04-15T02:05:23;5.68;;;2.58;;
21822;SDS011;11074;48.596;9.238;2023-04-15T02:07:50;7.15;;;2.75;;
21822;SDS011;11074;48.596;9.238;2023-04-15T02:10:16;6.97;;;2.90;;
21822;SDS011;11074;48.596;9.238;2023-04-15T02:12:42;5.55;;;2.70;;
21822;SDS011;11074;48.596;9.238;2023-04-15T02:15:08;3.83;;;2.58;;
21822;SDS011;11074;48.596;9.238;2023-04-15T02:17:34;4.68;;;2.90;;
21822;SDS011;11074;48.596;9.238;2023-04-15T02:20:01;6.45;;;2.60;;
21822;SDS011;11074;48.596;9.238;2023-04-15T02:22:30;5.32;;;2.80;;
21822;SDS011;11074;48.596;9.238;2023-04-15T02:24:56;6.45;;;2.92;;
21822;SDS011;11074;48.596;9.238;2023-04-15T02:27:21;6.53;;;2.90;;
21822;SDS011;11074;48.596;9.238;2023-04-15T02:29:47;6.68;;;2.92;;
21822;SDS011;11074;48.596;9.238;2023-04-15T02:32:15;6.47;;;2.63;;
21822;SDS011;11074;48.596;9.238;2023-04-15T02:34:41;6.03;;;2.90;;
21822;SDS011;11074;48.596;9.238;2023-04-15T02:37:10;5.57;;;2.80;;
21822;SDS011;11074;48.596;9.238;2023-04-15T02:39:38;6.97;;;2.85;;
21822;SDS011;11074;48.596;9.238;2023-04-15T02:42:04;6.05;;;2.60;;
21822;SDS011;11074;48.596;9.238;2023-04-15T02:44:30;5.75;;;2.60;;
21822;SDS011;11074;48.596;9.238;2023-04-15T02:46:58;6.15;;;3.15;;
21822;SDS011;11074;48.596;9.238;2023-04-15T02:49:24;6.57;;;2.75;;
21822;SDS011;11074;48.596;9.238;2023-04-15T02:51:50;6.07;;;2.85;;
21822;SDS011;11074;48.596;9.238;2023-04-15T02:54:17;5.30;;;2.58;;
21822;SDS011;11074;48.596;9.238;2023-04-15T02:56:44;5.38;;;2.55;;
21822;SDS011;11074;48.596;9.238;2023-04-15T02:59:13;5.25;;;2.80;;
21822;SDS011;11074;48.596;9.238;2023-04-15T03:01:39;4.97;;;2.42;;
21822;SDS011;11074;48.596;9.238;2023-04-15T03:04:05;4.55;;;2.78;;
21822;SDS011;11074;48.596;9.238;2023-04-15T03:06:32;7.38;;;2.38;;
21822;SDS011;11074;48.596;9.238;2023-04-15T03:08:59;4.10;;;2.47;;
21822;SDS011;11074;48.596;9.238;2023-04-15T03:11:26;4.25;;;2.47;;
21822;SDS011;11074;48.596;9.238;2023-04-15T03:13:56;7.18;;;2.67;;
21822;SDS011;11074;48.596;9.238;2023-04-15T03:16:23;6.10;;;2.80;;
21822;SDS011;11074;48.596;9.238;2023-04-15T03:18:49;6.05;;;2.70;;
21822;SDS011;11074;48.596;9.238;2023-04-15T03:21:15;8.75;;;2.70;;
21822;SDS011;11074;48.596;9.238;2023-04-15T03:23:41;4.78;;;2.58;;
21822;SDS011;11074;48.596;9.238;2023-04-15T03:26:06;7.65;;;2.78;;
21822;SDS011;11074;48.596;9.238;2023-04-15T03:28:32;5.65;;;2.63;;
21822;SDS011;11074;48.596;9.238;2023-04-15T03:30:58;6.47;;;2.90;;
21822;SDS011;11074;48.596;9.238;2023-04-15T03:33:24;4.18;;;2.35;;
21822;SDS011;11074;48.596;9.238;2023-04-15T03:35:50;5.38;;;2.50;;
21822;SDS011;11074;48.596;9.238;2023-04-15T03:38:17;6.53;;;2.63;;
21822;SDS011;11074;48.596;9.238;2023-04-15T03:40:43;5.63;;;2.65;;
21822;SDS011;11074;48.596;9.238;2023-04-15T03:43:10;5.20;;;2.83;;
21822;SDS011;11074;48.596;9.238;2023-04-15T03:45:36;5.13;;;2.40;;
21822;SDS011;11074;48.596;9.238;2023-04-15T03:48:02;6.15;;;2.60;;
21822;SDS011;11074;48.596;9.238;2023-04-15T03:50:28;4.78;;;2.70;;
21822;SDS011;11074;48.596;9.238;2023-04-15T03:52:55;4.72;;;2.40;;
21822;SDS011;11074;48.596;9.238;2023-04-15T03:55:20;6.00;;;2.47;;
21822;SDS011;11074;48.596;9.238;2023-04-15T03:57:46;3.45;;;2.40;;
21822;SDS011;11074;48.596;9.238;2023-04-15T04:00:11;5.43;;;2.58;;
21822;SDS011;11074;48.596;9.238;2023-04-15T04:02:38;6.95;;;2.65;;
21822;SDS011;11074;48.596;9.238;2023-04-15T04:05:07;7.20;;;2.40;;
21822;SDS011;11074;48.596;9.238;2023-04-15T04:07:33;6.45;;;2.33;;
21822;SDS011;11074;48.596;9.238;2023-04-15T04:09:58;5.25;;;2.60;;
21822;SDS011;11074;48.596;9.238;2023-04-15T04:12:24;3.85;;;2.25;;
21822;SDS011;11074;48.596;9.238;2023-04-15T04:14:50;4.82;;;2.50;;
21822;SDS011;11074;48.596;9.238;2023-04-15T04:17:16;4.53;;;2.45;;
21822;SDS011;11074;48.596;9.238;2023-04-15T04:19:41;6.88;;;2.40;;
21822;SDS011;11074;48.596;9.238;2023-04-15T04:22:07;3.60;;;2.10;;
21822;SDS011;11074;48.596;9.238;2023-04-15T04:24:33;6.72;;;2.58;;
21822;SDS011;11074;48.596;9.238;2023-04-15T04:26:58;5.05;;;2.22;;
21822;SDS011;11074;48.596;9.238;2023-04-15T04:29:24;5.47;;;2.72;;
21822;SDS011;11074;48.596;9.238;2023-04-15T04:31:53;5.28;;;2.85;;
21822;SDS011;11074;48.596;9.238;2023-04-15T04:34:19;5.57;;;2.58;;
21822;SDS011;11074;48.596;9.238;2023-04-15T04:36:45;4.70;;;2.70;;
21822;SDS011;11074;48.596;9.238;2023-04-15T04:39:10;5.60;;;2.70;;
21822;SDS011;11074;48.596;9.238;2023-04-15T04:41:36;5.43;;;2.50;;
21822;SDS011;11074;48.596;9.238;2023-04-15T04:44:02;8.02;;;2.47;;
21822;SDS011;11074;48.596;9.238;2023-04-15T04:46:28;5.13;;;2.50;;
21822;SDS011;11074;48.596;9.238;2023-04-15T04:48:54;5.90;;;2.50;;
21822;SDS011;11074;48.596;9.238;2023-04-15T04:51:19;3.90;;;2.40;;
21822;SDS011;11074;48.596;9.238;2023-04-15T04:53:45;6.60;;;2.40;;
21822;SDS011;11074;48.596;9.238;2023-04-15T04:56:14;4.38;;;2.47;;
21822;SDS011;11074;48.596;9.238;2023-04-15T04:58:41;5.00;;;2.75;;
21822;SDS011;11074;48.596;9.238;2023-04-15T05:01:06;4.50;;;2.78;;
21822;SDS011;11074;48.596;9.238;2023-04-15T05:03:33;3.75;;;2.53;;
21822;SDS011;11074;48.596;9.238;2023-04-15T05:05:59;5.15;;;2.50;;
21822;SDS011;11074;48.596;9.238;2023-04-15T05:08:24;5.43;;;2.78;;
21822;SDS011;11074;48.596;9.238;2023-04-15T05:10:50;4.70;;;2.40;;
21822;SDS011;11074;48.596;9.238;2023-04-15T05:13:16;5.75;;;2.30;;
21822;SDS011;11074;48.596;9.238;2023-04-15T05:15:41;4.25;;;2.78;;
21822;SDS011;11074;48.596;9.238;2023-04-15T05:18:07;3.92;;;2.50;;
21822;SDS011;11074;48.596;9.238;2023-04-15T05:20:33;5.05;;;2.78;;
21822;SDS011;11074;48.596;9.238;2023-04-15T05:22:59;3.38;;;2.22;;
21822;SDS011;11074;48.596;9.238;2023-04-15T05:25:24;5.43;;;2.85;;
21822;SDS011;11074;48.596;9.238;2023-04-15T05:27:51;5.40;;;2.53;;
21822;SDS011;11074;48.596;9.238;2023-04-15T05:30:17;6.03;;;2.80;;
21822;SDS011;11074;48.596;9.238;2023-04-15T05:32:42;7.45;;;2.90;;
21822;SDS011;11074;48.596;9.238;2023-04-15T05:35:08;5.85;;;2.95;;
21822;SDS011;11074;48.596;9.238;2023-04-15T05:37:34;5.82;;;3.08;;
21822;SDS011;11074;48.596;9.238;2023-04-15T05:40:00;9.00;;;3.85;;
21822;SDS011;11074;48.596;9.238;2023-04-15T05:42:26;6.13;;;3.10;;
21822;SDS011;11074;48.596;9.238;2023-04-15T05:44:52;6.40;;;3.10;;
21822;SDS011;11074;48.596;9.238;2023-04-15T05:47:17;6.72;;;3.20;;
21822;SDS011;11074;48.596;9.238;2023-04-15T05:49:43;5.60;;;3.38;;
21822;SDS011;11074;48.596;9.238;2023-04-15T05:52:09;5.60;;;3.17;;
21822;SDS011;11074;48.596;9.238;2023-04-15T05:54:35;5.90;;;2.97;;
21822;SDS011;11074;48.596;9.238;2023-04-15T05:57:01;6.55;;;3.35;;
21822;SDS011;11074;48.596;9.238;2023-04-15T05:59:26;5.70;;;3.83;;
21822;SDS011;11074;48.596;9.238;2023-04-15T06:01:52;8.05;;;4.03;;
21822;SDS011;11074;48.596;9.238;2023-04-15T06:04:18;8.02;;;4.15;;
21822;SDS011;11074;48.596;9.238;2023-04-15T06:06:44;9.80;;;3.70;;
21822;SDS011;11074;48.596;9.238;2023-04-15T06:09:10;7.65;;;3.95;;
21822;SDS011;11074;48.596;9.238;2023-04-15T06:11:35;6.28;;;3.17;;
21822;SDS011;11074;48.596;9.238;2023-04-15T06:14:01;6.35;;;3.22;;
21822;SDS011;11074;48.596;9.238;2023-04-15T06:16:27;6.05;;;3.25;;
21822;SDS011;11074;48.596;9.238;2023-04-15T06:18:53;6.10;;;3.10;;
21822;SDS011;11074;48.596;9.238;2023-04-15T06:21:18;9.18;;;4.00;;
21822;SDS011;11074;48.596;9.238;2023-04-15T06:23:44;8.25;;;4.00;;
21822;SDS011;11074;48.596;9.238;2023-04-15T06:26:10;10.25;;;4.22;;
21822;SDS011;11074;48.596;9.238;2023-04-15T06:28:35;13.23;;;4.72;;
21822;SDS011;11074;48.596;9.238;2023-04-15T06:31:01;12.13;;;4.85;;
21822;SDS011;11074;48.596;9.238;2023-04-15T06:33:27;10.27;;;4.43;;
21822;SDS011;11074;48.596;9.238;2023-04-15T06:35:53;7.65;;;4.38;;
21822;SDS011;11074;48.596;9.238;2023-04-15T06:38:18;5.97;;;3.50;;
21822;SDS011;11074;48.596;9.238;2023-04-15T06:40:44;7.07;;;3.35;;
21822;SDS011;11074;48.596;9.238;2023-04-15T06:43:10;7.70;;;3.45;;
21822;SDS011;11074;48.596;9.238;2023-04-15T06:45:36;5.75;;;3.35;;
21822;SDS011;11074;48.596;9.238;2023-04-15T06:48:02;6.70;;;3.22;;
21822;SDS011;11074;48.596;9.238;2023-04-15T06:50:28;5.78;;;3.53;;
21822;SDS011;11074;48.596;9.238;2023-04-15T06:52:54;6.13;;;3.30;;
21822;SDS011;11074;48.596;9.238;2023-04-15T06:55:21;8.40;;;3.88;;
21822;SDS011;11074;48.596;9.238;2023-04-15T06:57:46;8.25;;;3.45;;
21822;SDS011;11074;48.596;9.238;2023-04-15T07:00:12;6.40;;;3.47;;
21822;SDS011;11074;48.596;9.238;2023-04-15T07:02:38;10.35;;;4.65;;
21822;SDS011;11074;48.596;9.238;2023-04-15T07:05:04;8.77;;;3.40;;
21822;SDS011;11074;48.596;9.238;2023-04-15T07:07:31;6.78;;;4.10;;
21822;SDS011;11074;48.596;9.238;2023-04-15T07:09:57;6.85;;;3.30;;
21822;SDS011;11074;48.596;9.238;2023-04-15T07:12:22;6.28;;;3.40;;
21822;SDS011;11074;48.596;9.238;2023-04-15T07:14:48;7.07;;;3.63;;
21822;SDS011;11074;48.596;9.238;2023-04-15T07:17:14;5.95;;;3.38;;
21822;SDS011;11074;48.596;9.238;2023-04-15T07:19:39;7.10;;;3.58;;
21822;SDS011;11074;48.596;9.238;2023-04-15T07:22:05;6.30;;;2.80;;
21822;SDS011;11074;48.596;9.238;2023-04-15T07:24:31;4.82;;;2.83;;
21822;SDS011;11074;48.596;9.238;2023-04-15T07:26:57;6.38;;;3.90;;
21822;SDS011;11074;48.596;9.238;2023-04-15T07:29:23;7.80;;;4.95;;
21822;SDS011;11074;48.596;9.238;2023-04-15T07:31:51;10.90;;;4.30;;
21822;SDS011;11074;48.596;9.238;2023-04-15T07:34:18;8.35;;;3.83;;
21822;SDS011;11074;48.596;9.238;2023-04-15T07:36:44;10.93;;;4.70;;
21822;SDS011;11074;48.596;9.238;2023-04-15T07:39:14;7.30;;;3.67;;
21822;SDS011;11074;48.596;9.238;2023-04-15T07:41:49;7.10;;;4.28;;
21822;SDS011;11074;48.596;9.238;2023-04-15T07:44:15;8.02;;;3.33;;
21822;SDS011;11074;48.596;9.238;2023-04-15T07:46:40;5.72;;;3.53;;
21822;SDS011;11074;48.596;9.238;2023-04-15T07:49:06;7.75;;;3.53;;
21822;SDS011;11074;48.596;9.238;2023-04-15T07:51:32;9.23;;;4.50;;
21822;SDS011;11074;48.596;9.238;2023-04-15T07:53:57;6.40;;;3.50;;
21822;SDS011;11074;48.596;9.238;2023-04-15T07:56:23;8.02;;;3.53;;
21822;SDS011;11074;48.596;9.238;2023-04-15T07:58:50;6.93;;;3.20;;
21822;SDS011;11074;48.596;9.238;2023-04-15T08:01:16;6.65;;;3.13;;
21822;SDS011;11074;48.596;9.238;2023-04-15T08:03:41;6.22;;;3.30;;
21822;SDS011;11074;48.596;9.238;2023-04-15T08:06:07;8.07;;;3.60;;
21822;SDS011;11074;48.596;9.238;2023-04-15T08:08:33;8.15;;;3.53;;
21822;SDS011;11074;48.596;9.238;2023-04-15T08:10:59;6.05;;;3.65;;
21822;SDS011;11074;48.596;9.238;2023-04-15T08:13:25;7.18;;;4.00;;
21822;SDS011;11074;48.596;9.238;2023-04-15T08:15:52;6.55;;;2.92;;
21822;SDS011;11074;48.596;9.238;2023-04-15T08:18:43;8.77;;;3.40;;
21822;SDS011;11074;48.596;9.238;2023-04-15T08:21:10;9.52;;;2.85;;
21822;SDS011;11074;48.596;9.238;2023-04-15T08:23:36;6.20;;;3.20;;
21822;SDS011;11074;48.596;9.238;2023-04-15T08:26:02;9.23;;;3.47;;
21822;SDS011;11074;48.596;9.238;2023-04-15T08:28:28;7.22;;;3.00;;
21822;SDS011;11074;48.596;9.238;2023-04-15T08:30:53;6.57;;;3.00;;
21822;SDS011;11074;48.596;9.238;2023-04-15T08:33:19;6.88;;;2.88;;
21822;SDS011;11074;48.596;9.238;2023-04-15T08:35:45;6.93;;;2.83;;
21822;SDS011;11074;48.596;9.238;2023-04-15T08:38:13;6.47;;;2.90;;
21822;SDS011;11074;48.596;9.238;2023-04-15T08:40:42;6.72;;;2.90;;
21822;SDS011;11074;48.596;9.238;2023-04-15T08:43:11;5.53;;;2.90;;
21822;SDS011;11074;48.596;9.238;2023-04-15T08:45:45;6.88;;;3.15;;
21822;SDS011;11074;48.596;9.238;2023-04-15T08:48:13;4.78;;;2.72;;
21822;SDS011;11074;48.596;9.238;2023-04-15T08:50:40;7.45;;;2.75;;
21822;SDS011;11074;48.596;9.238;2023-04-15T08:53:06;6.18;;;3.05;;
21822;SDS011;11074;48.596;9.238;2023-04-15T08:55:35;8.20;;;2.70;;
21822;SDS011;11074;48.596;9.238;2023-04-15T08:58:07;8.02;;;2.78;;
21822;SDS011;11074;48.596;9.238;2023-04-15T09:00:35;5.00;;;2.60;;
21822;SDS011;11074;48.596;9.238;2023-04-15T09:03:01;8.70;;;2.80;;
21822;SDS011;11074;48.596;9.238;2023-04-15T09:05:30;7.97;;;3.72;;
21822;SDS011;11074;48.596;9.238;2023-04-15T09:07:57;7.47;;;3.05;;
21822;SDS011;11074;48.596;9.238;2023-04-15T09:10:24;7.57;;;2.90;;
21822;SDS011;11074;48.596;9.238;2023-04-15T09:12:50;6.25;;;2.63;;
21822;SDS011;11074;48.596;9.238;2023-04-15T09:15:15;8.90;;;2.80;;
21822;SDS011;11074;48.596;9.238;2023-04-15T09:17:42;7.68;;;2.72;;
21822;SDS011;11074;48.596;9.238;2023-04-15T09:20:09;8.13;;;3.20;;
21822;SDS011;11074;48.596;9.238;2023-04-15T09:22:38;6.72;;;2.53;;
21822;SDS011;11074;48.596;9.238;2023-04-15T09:25:26;8.38;;;2.78;;
21822;SDS011;11074;48.596;9.238;2023-04-15T09:27:54;5.10;;;2.40;;
21822;SDS011;11074;48.596;9.238;2023-04-15T09:30:26;7.65;;;2.70;;
21822;SDS011;11074;48.596;9.238;2023-04-15T09:32:56;4.78;;;2.58;;
21822;SDS011;11074;48.596;9.238;2023-04-15T09:35:26;6.43;;;2.30;;
21822;SDS011;11074;48.596;9.238;2023-04-15T09:37:52;4.93;;;2.58;;
21822;SDS011;11074;48.596;9.238;2023-04-15T09:40:31;5.95;;;2.38;;
21822;SDS011;11074;48.596;9.238;2023-04-15T09:43:00;7.70;;;2.92;;
21822;SDS011;11074;48.596;9.238;2023-04-15T09:45:28;7.65;;;2.63;;
21822;SDS011;11074;48.596;9.238;2023-04-15T09:47:56;4.78;;;2.25;;
21822;SDS011;11074;48.596;9.238;2023-04-15T09:50:23;5.55;;;2.47;;
21822;SDS011;11074;48.596;9.238;2023-04-15T09:52:55;5.05;;;2.17;;
21822;SDS011;11074;48.596;9.238;2023-04-15T09:55:21;4.55;;;2.03;;
21822;SDS011;11074;48.596;9.238;2023-04-15T09:57:47;5.32;;;2.00;;
21822;SDS011;11074;48.596;9.238;2023-04-15T10:00:13;4.82;;;1.90;;
21822;SDS011;11074;48.596;9.238;2023-04-15T10:02:39;5.80;;;2.10;;
21822;SDS011;11074;48.596;9.238;2023-04-15T10:05:13;4.57;;;1.80;;
21822;SDS011;11074;48.596;9.238;2023-04-15T10:07:41;6.30;;;1.90;;
21822;SDS011;11074;48.596;9.238;2023-04-15T10:10:08;6.53;;;2.22;;
21822;SDS011;11074;48.596;9.238;2023-04-15T10:12:36;6.03;;;2.58;;
21822;SDS011;11074;48.596;9.238;2023-04-15T10:15:05;3.80;;;2.20;;
21822;SDS011;11074;48.596;9.238;2023-04-15T10:17:40;5.43;;;2.08;;
21822;SDS011;11074;48.596;9.238;2023-04-15T10:20:08;3.88;;;1.83;;
21822;SDS011;11074;48.596;9.238;2023-04-15T10:22:37;4.78;;;2.33;;
21822;SDS011;11074;48.596;9.238;2023-04-15T10:25:04;4.63;;;2.20;;
21822;SDS011;11074;48.596;9.238;2023-04-15T10:27:31;6.93;;;2.95;;
21822;SDS011;11074;48.596;9.238;2023-04-15T10:29:58;5.88;;;2.38;;
21822;SDS011;11074;48.596;9.238;2023-04-15T10:32:27;4.55;;;2.60;;
21822;SDS011;11074;48.596;9.238;2023-04-15T10:34:54;6.15;;;2.72;;
21822;SDS011;11074;48.596;9.238;2023-04-15T10:37:22;4.43;;;2.20;;
21822;SDS011;11074;48.596;9.238;2023-04-15T10:40:22;4.93;;;2.50;;
21822;SDS011;11074;48.596;9.238;2023-04-15T10:42:54;5.53;;;2.40;;
21822;SDS011;11074;48.596;9.238;2023-04-15T10:45:24;4.18;;;2.15;;
21822;SDS011;11074;48.596;9.238;2023-04-15T10:48:02;4.75;;;2.28;;
21822;SDS011;11074;48.596;9.238;2023-04-15T10:50:31;4.88;;;2.67;;
21822;SDS011;11074;48.596;9.238;2023-04-15T10:52:57;5.20;;;2.15;;
21822;SDS011;11074;48.596;9.238;2023-04-15T10:55:30;4.45;;;1.70;;
21822;SDS011;11074;48.596;9.238;2023-04-15T10:57:59;4.82;;;1.98;;
21822;SDS011;11074;48.596;9.238;2023-04-15T11:00:30;4.88;;;1.98;;
21822;SDS011;11074;48.596;9.238;2023-04-15T11:03:06;7.70;;;1.90;;
21822;SDS011;11074;48.596;9.238;2023-04-15T11:08:05;5.60;;;2.15;;
21822;SDS011;11074;48.596;9.238;2023-04-15T11:13:02;4.00;;;1.70;;
21822;SDS011;11074;48.596;9.238;2023-04-15T11:15:53;4.78;;;1.80;;
21822;SDS011;11074;48.596;9.238;2023-04-15T11:18:25;4.72;;;1.70;;
21822;SDS011;11074;48.596;9.238;2023-04-15T11:20:59;3.88;;;2.00;;
21822;SDS011;11074;48.596;9.238;2023-04-15T11:23:37;4.47;;;1.55;;
21822;SDS011;11074;48.596;9.238;2023-04-15T11:26:08;5.45;;;2.00;;
21822;SDS011;11074;48.596;9.238;2023-04-15T11:28:36;5.72;;;1.70;;
21822;SDS011;11074;48.596;9.238;2023-04-15T11:31:08;5.57;;;2.00;;
21822;SDS011;11074;48.596;9.238;2023-04-15T11:33:44;6.57;;;2.22;;
21822;SDS011;11074;48.596;9.238;2023-04-15T11:36:27;6.00;;;1.92;;
21822;SDS011;11074;48.596;9.238;2023-04-15T11:38:56;4.50;;;1.77;;
21822;SDS011;11074;48.596;9.238;2023-04-15T11:41:23;2.55;;;1.20;;
21822;SDS011;11074;48.596;9.238;2023-04-15T11:43:50;3.08;;;1.48;;
21822;SDS011;11074;48.596;9.238;2023-04-15T11:46:16;4.18;;;1.48;;
21822;SDS011;11074;48.596;9.238;2023-04-15T11:48:43;3.95;;;1.48;;
21822;SDS011;11074;48.596;9.238;2023-04-15T11:51:11;5.05;;;1.80;;
21822;SDS011;11074;48.596;9.238;2023-04-15T11:56:09;5.30;;;1.95;;
21822;SDS011;11074;48.596;9.238;2023-04-15T11:58:40;5.07;;;1.92;;
21822;SDS011;11074;48.596;9.238;2023-04-15T12:01:07;5.22;;;1.80;;
21822;SDS011;11074;48.596;9.238;2023-04-15T12:03:40;4.80;;;2.15;;
21822;SDS011;11074;48.596;9.238;2023-04-15T12:06:14;5.80;;;1.83;;
21822;SDS011;11074;48.596;9.238;2023-04-15T12:11:32;4.63;;;2.15;;
21822;SDS011;11074;48.596;9.238;2023-04-15T12:16:49;6.65;;;2.42;;
21822;SDS011;11074;48.596;9.238;2023-04-15T12:19:21;5.70;;;2.38;;
21822;SDS011;11074;48.596;9.238;2023-04-15T12:21:48;4.85;;;2.08;;
21822;SDS011;11074;48.596;9.238;2023-04-15T12:24:23;6.88;;;2.10;;
21822;SDS011;11074;48.596;9.238;2023-04-15T12:26:53;3.83;;;2.05;;
21822;SDS011;11074;48.596;9.238;2023-04-15T12:29:25;5.45;;;2.33;;
21822;SDS011;11074;48.596;9.238;2023-04-15T12:32:06;4.75;;;2.00;;
21822;SDS011;11074;48.596;9.238;2023-04-15T12:34:40;4.32;;;2.17;;
21822;SDS011;11074;48.596;9.238;2023-04-15T12:37:14;5.03;;;2.00;;
21822;SDS011;11074;48.596;9.238;2023-04-15T12:39:41;4.50;;;1.75;;
21822;SDS011;11074;48.596;9.238;2023-04-15T12:42:09;4.65;;;1.90;;
21822;SDS011;11074;48.596;9.238;2023-04-15T12:44:36;4.43;;;1.83;;
21822;SDS011;11074;48.596;9.238;2023-04-15T12:47:03;5.30;;;1.80;;
21822;SDS011;11074;48.596;9.238;2023-04-15T12:49:29;5.00;;;1.70;;
21822;SDS011;11074;48.596;9.238;2023-04-15T12:51:57;4.43;;;2.05;;
21822;SDS011;11074;48.596;9.238;2023-04-15T12:54:31;6.20;;;2.83;;
21822;SDS011;11074;48.596;9.238;2023-04-15T12:56:58;3.50;;;2.00;;
21822;SDS011;11074;48.596;9.238;2023-04-15T12:59:24;3.65;;;1.88;;
21822;SDS011;11074;48.596;9.238;2023-04-15T13:01:51;6.07;;;3.13;;
21822;SDS011;11074;48.596;9.238;2023-04-15T13:04:18;4.50;;;2.33;;
21822;SDS011;11074;48.596;9.238;2023-04-15T13:06:45;5.20;;;2.40;;
21822;SDS011;11074;48.596;9.238;2023-04-15T13:09:10;6.05;;;3.00;;
21822;SDS011;11074;48.596;9.238;2023-04-15T13:11:36;4.38;;;2.80;;
21822;SDS011;11074;48.596;9.238;2023-04-15T13:14:03;4.75;;;2.80;;
21822;SDS011;11074;48.596;9.238;2023-04-15T13:16:31;5.30;;;2.83;;
21822;SDS011;11074;48.596;9.238;2023-04-15T13:18:58;4.78;;;2.63;;
21822;SDS011;11074;48.596;9.238;2023-04-15T13:21:24;4.72;;;2.70;;
21822;SDS011;11074;48.596;9.238;2023-04-15T13:23:51;5.35;;;2.85;;
21822;SDS011;11074;48.596;9.238;2023-04-15T13:26:17;4.18;;;2.40;;
21822;SDS011;11074;48.596;9.238;2023-04-15T13:28:43;4.82;;;2.53;;
21822;SDS011;11074;48.596;9.238;2023-04-15T13:31:10;6.03;;;2.67;;
21822;SDS011;11074;48.596;9.238;2023-04-15T13:33:35;4.43;;;2.67;;
21822;SDS011;11074;48.596;9.238;2023-04-15T13:36:01;5.05;;;2.30;;
21822;SDS011;11074;48.596;9.238;2023-04-15T13:38:27;4.18;;;2.40;;
21822;SDS011;11074;48.596;9.238;2023-04-15T13:40:53;4.90;;;2.58;;
21822;SDS011;11074;48.596;9.238;2023-04-15T13:43:18;3.47;;;2.25;;
21822;SDS011;11074;48.596;9.238;2023-04-15T13:45:46;4.07;;;2.20;;
21822;SDS011;11074;48.596;9.238;2023-04-15T13:48:12;5.13;;;2.38;;
21822;SDS011;11074;48.596;9.238;2023-04-15T13:50:38;5.75;;;2.50;;
21822;SDS011;11074;48.596;9.238;2023-04-15T13:53:05;6.22;;;2.60;;
21822;SDS011;11074;48.596;9.238;2023-04-15T13:55:30;9.00;;;2.55;;
21822;SDS011;11074;48.596;9.238;2023-04-15T13:57:58;6.00;;;3.17;;
21822;SDS011;11074;48.596;9.238;2023-04-15T14:00:24;3.92;;;2.15;;
21822;SDS011;11074;48.596;9.238;2023-04-15T14:02:50;7.53;;;2.65;;
21822;SDS011;11074;48.596;9.238;2023-04-15T14:05:15;3.60;;;2.15;;
21822;SDS011;11074;48.596;9.238;2023-04-15T14:07:41;3.20;;;1.77;;
21822;SDS011;11074;48.596;9.238;2023-04-15T14:10:07;5.28;;;2.38;;
21822;SDS011;11074;48.596;9.238;2023-04-15T14:12:33;3.40;;;1.98;;
21822;SDS011;11074;48.596;9.238;2023-04-15T14:14:58;3.35;;;1.83;;
21822;SDS011;11074;48.596;9.238;2023-04-15T14:17:24;4.47;;;1.90;;
21822;SDS011;11074;48.596;9.238;2023-04-15T14:19:50;3.80;;;1.92;;
21822;SDS011;11074;48.596;9.238;2023-04-15T14:22:15;3.17;;;1.50;;
21822;SDS011;11074;48.596;9.238;2023-04-15T14:24:42;2.60;;;1.55;;
21822;SDS011;11074;48.596;9.238;2023-04-15T14:27:09;3.42;;;1.60;;
21822;SDS011;11074;48.596;9.238;2023-04-15T14:29:36;4.13;;;1.50;;
21822;SDS011;11074;48.596;9.238;2023-04-15T14:32:02;3.17;;;1.67;;
21822;SDS011;11074;48.596;9.238;2023-04-15T14:34:28;4.55;;;1.42;;
21822;SDS011;11074;48.596;9.238;2023-04-15T14:36:54;3.58;;;1.30;;
21822;SDS011;11074;48.596;9.238;2023-04-15T14:39:20;5.38;;;1.63;;
21822;SDS011;11074;48.596;9.238;2023-04-15T14:41:46;3.92;;;1.55;;
21822;SDS011;11074;48.596;9.238;2023-04-15T14:44:11;4.30;;;1.52;;
21822;SDS011;11074;48.596;9.238;2023-04-15T14:46:37;3.20;;;1.48;;
21822;SDS011;11074;48.596;9.238;2023-04-15T14:49:04;2.85;;;1.30;;
21822;SDS011;11074;48.596;9.238;2023-04-15T14:51:31;3.78;;;1.30;;
21822;SDS011;11074;48.596;9.238;2023-04-15T14:53:57;2.42;;;1.13;;
21822;SDS011;11074;48.596;9.238;2023-04-15T14:56:23;3.15;;;1.30;;
21822;SDS011;11074;48.596;9.238;2023-04-15T14:58:48;2.00;;;0.90;;
21822;SDS011;11074;48.596;9.238;2023-04-15T15:01:17;2.30;;;0.88;;